Time;durP1;ratioP1;P1;durP2;ratioP2;P2;SDS_P1;SDS_P2;PMS_P1;PMS_P2;Temp;Humidity;BMP_temperature;BMP_pressure;BME280_temperature;BME280_humidity;BME280_pressure;Samples;Min_cycle;Max_cycle;Signal;HPM_P1;HPM_P2
2023/10/08 00:00:45;;;;;;;1.50;1.00;;;19.10;98.20;;;;;;4966658;28;20472;-85
2023/10/08 00:03:14;;;;;;;1.43;0.90;;;19.10;98.20;;;;;;4948479;28;20561;-83
2023/10/08 00:05:46;;;;;;;1.47;0.90;;;19.10;98.20;;;;;;4965607;28;20473;-84
2023/10/08 00:08:16;;;;;;;1.50;1.00;;;19.10;98.20;;;;;;4952576;28;20841;-85
2023/10/08 00:10:51;;;;;;;1.40;0.90;;;19.10;98.20;;;;;;4967334;28;20470;-85
2023/10/08 00:13:18;;;;;;;1.43;0.90;;;19.00;98.20;;;;;;4952893;28;20485;-83
2023/10/08 00:15:53;;;;;;;1.50;0.90;;;19.00;98.20;;;;;;4964522;28;20514;-83
2023/10/08 00:18:20;;;;;;;1.40;0.90;;;19.00;98.20;;;;;;4954635;28;20823;-84
2023/10/08 00:20:54;;;;;;;1.50;1.00;;;19.00;98.20;;;;;;4968186;28;20589;-84
2023/10/08 00:23:35;;;;;;;1.50;0.90;;;19.00;98.20;;;;;;4979719;28;20540;-84
2023/10/08 00:26:06;;;;;;;1.50;1.00;;;18.90;98.20;;;;;;4952850;28;20528;-84
2023/10/08 00:28:33;;;;;;;1.50;1.00;;;18.90;98.20;;;;;;4976619;28;20459;-84
2023/10/08 00:31:12;;;;;;;1.50;0.90;;;18.90;98.20;;;;;;4959784;28;21032;-84
2023/10/08 00:33:39;;;;;;;1.40;0.90;;;18.90;98.20;;;;;;4975332;28;20473;-84
2023/10/08 00:36:17;;;;;;;1.50;0.90;;;18.90;98.20;;;;;;4959991;28;20554;-83
2023/10/08 00:38:50;;;;;;;1.50;0.90;;;18.80;98.20;;;;;;4967205;28;20498;-84
2023/10/08 00:41:21;;;;;;;1.50;1.00;;;18.80;98.20;;;;;;4952775;28;20481;-84
2023/10/08 00:43:50;;;;;;;1.50;0.90;;;18.80;98.20;;;;;;4977192;28;20513;-84
2023/10/08 00:46:25;;;;;;;1.43;0.90;;;18.80;98.20;;;;;;4958399;28;20495;-86
2023/10/08 00:48:54;;;;;;;1.50;0.90;;;18.80;98.20;;;;;;4971508;28;20450;-84
2023/10/08 00:51:27;;;;;;;1.47;0.90;;;18.80;98.20;;;;;;4952550;28;20474;-85
2023/10/08 00:54:05;;;;;;;1.50;1.20;;;18.80;98.20;;;;;;4967147;28;20519;-84
2023/10/08 00:56:49;;;;;;;1.50;0.90;;;18.70;98.20;;;;;;4964424;28;20487;-84
2023/10/08 00:59:20;;;;;;;1.47;1.00;;;18.70;98.20;;;;;;4970762;28;20486;-84
2023/10/08 01:01:51;;;;;;;1.50;0.90;;;18.70;98.20;;;;;;4959122;28;21039;-84
2023/10/08 01:04:26;;;;;;;1.47;1.00;;;18.70;98.20;;;;;;4977002;28;20538;-84
2023/10/08 01:06:58;;;;;;;1.47;0.90;;;18.60;98.20;;;;;;4961755;28;20481;-84
2023/10/08 01:09:50;;;;;;;1.47;0.90;;;18.60;98.20;;;;;;4977250;28;21020;-83
2023/10/08 01:12:24;;;;;;;1.47;0.90;;;18.50;98.20;;;;;;4962741;28;21087;-83
2023/10/08 01:14:53;;;;;;;1.50;1.00;;;18.50;98.20;;;;;;4957057;28;21108;-82
2023/10/08 01:17:25;;;;;;;1.50;1.00;;;18.50;98.20;;;;;;4947594;28;20899;-84
2023/10/08 01:19:56;;;;;;;1.50;0.93;;;18.40;98.20;;;;;;4958095;28;20495;-84
2023/10/08 01:22:28;;;;;;;1.50;1.00;;;18.40;98.20;;;;;;4971098;28;20477;-83
2023/10/08 01:24:55;;;;;;;1.50;0.90;;;18.30;98.20;;;;;;4957819;28;20486;-84
2023/10/08 01:27:24;;;;;;;1.47;0.90;;;18.30;98.20;;;;;;4960079;28;20473;-84
2023/10/08 01:30:08;;;;;;;1.50;0.90;;;18.30;98.20;;;;;;4958474;28;20465;-84
2023/10/08 01:32:37;;;;;;;1.43;0.90;;;18.20;98.20;;;;;;4960599;28;20490;-85
2023/10/08 01:35:21;;;;;;;1.50;0.90;;;18.20;98.20;;;;;;4956308;28;20542;-83
2023/10/08 01:37:50;;;;;;;1.50;0.93;;;18.10;98.20;;;;;;4978151;28;20496;-84
2023/10/08 01:40:21;;;;;;;1.50;1.00;;;18.00;98.20;;;;;;4963602;28;20463;-86
2023/10/08 01:42:52;;;;;;;1.50;0.97;;;18.00;98.20;;;;;;4976810;28;20545;-84
2023/10/08 01:45:19;;;;;;;1.50;1.00;;;18.00;98.20;;;;;;4954452;28;20542;-84
2023/10/08 01:47:51;;;;;;;1.50;0.90;;;17.90;98.20;;;;;;4981777;28;20483;-84
2023/10/08 01:50:21;;;;;;;1.50;0.90;;;17.90;98.20;;;;;;4956030;28;20557;-84
2023/10/08 01:52:51;;;;;;;1.50;0.90;;;17.90;98.20;;;;;;4965018;28;20517;-84
2023/10/08 01:55:19;;;;;;;1.43;0.90;;;17.80;98.20;;;;;;4955834;28;20490;-84
2023/10/08 01:57:46;;;;;;;1.50;1.10;;;17.80;98.20;;;;;;4983401;28;20488;-84
2023/10/08 02:00:19;;;;;;;1.47;0.90;;;17.80;98.20;;;;;;4956504;28;20518;-84
2023/10/08 02:02:47;;;;;;;1.43;0.90;;;17.80;98.20;;;;;;4966683;28;20481;-85
2023/10/08 02:05:15;;;;;;;1.50;1.10;;;17.70;98.20;;;;;;4961439;28;20696;-84
2023/10/08 02:07:44;;;;;;;1.50;1.00;;;17.70;98.20;;;;;;4984252;28;20489;-83
2023/10/08 02:10:14;;;;;;;1.50;1.00;;;17.70;98.20;;;;;;4968306;28;20459;-83
2023/10/08 02:12:40;;;;;;;1.50;0.97;;;17.60;98.20;;;;;;4963499;28;21114;-85
2023/10/08 02:15:11;;;;;;;1.50;0.90;;;17.60;98.20;;;;;;4957058;28;20455;-84
2023/10/08 02:17:39;;;;;;;1.50;1.00;;;17.60;98.20;;;;;;4976482;28;20512;-84
2023/10/08 02:20:08;;;;;;;1.50;1.10;;;17.60;98.20;;;;;;4957796;28;20849;-85
2023/10/08 02:22:35;;;;;;;1.50;0.90;;;17.50;98.20;;;;;;4975095;28;20919;-84
2023/10/08 02:25:06;;;;;;;1.50;0.90;;;17.50;98.20;;;;;;4958276;28;21009;-83
2023/10/08 02:27:34;;;;;;;1.47;0.90;;;17.40;98.20;;;;;;4975054;28;20491;-85
2023/10/08 02:30:02;;;;;;;1.50;1.00;;;17.40;98.20;;;;;;4962280;28;20463;-84
2023/10/08 02:32:29;;;;;;;1.50;1.00;;;17.40;98.20;;;;;;4965968;28;20542;-84
2023/10/08 02:34:58;;;;;;;1.50;1.00;;;17.40;98.20;;;;;;4955513;28;20590;-84
2023/10/08 02:37:27;;;;;;;1.43;0.90;;;17.40;98.20;;;;;;4977195;28;20503;-84
2023/10/08 02:40:13;;;;;;;1.43;1.00;;;17.40;98.20;;;;;;4957983;28;20490;-84
2023/10/08 02:42:41;;;;;;;1.43;1.00;;;17.50;98.20;;;;;;4966209;28;20851;-85
2023/10/08 02:45:13;;;;;;;1.43;1.00;;;17.50;98.20;;;;;;4961304;28;20545;-84
2023/10/08 02:47:41;;;;;;;1.50;0.90;;;17.50;98.20;;;;;;4979888;28;20550;-84
2023/10/08 02:50:10;;;;;;;1.50;1.00;;;17.50;98.20;;;;;;4961315;28;20463;-85
2023/10/08 02:52:39;;;;;;;1.50;1.00;;;17.50;98.20;;;;;;4966304;28;20484;-85
2023/10/08 02:55:18;;;;;;;1.50;0.93;;;17.50;98.20;;;;;;4959694;28;20467;-84
2023/10/08 02:57:51;;;;;;;1.50;1.10;;;17.50;98.20;;;;;;4982797;28;20571;-84
2023/10/08 03:00:20;;;;;;;1.50;0.90;;;17.50;98.20;;;;;;4959250;28;20467;-85
2023/10/08 03:02:47;;;;;;;1.50;0.93;;;17.50;98.20;;;;;;4982364;28;20485;-83
2023/10/08 03:05:16;;;;;;;1.50;0.90;;;17.50;98.20;;;;;;4954962;28;20554;-85
2023/10/08 03:07:52;;;;;;;1.47;0.90;;;17.40;98.20;;;;;;4980781;28;20484;-84
2023/10/08 03:10:22;;;;;;;1.50;1.00;;;17.40;98.20;;;;;;4959367;28;20899;-85
2023/10/08 03:12:50;;;;;;;1.47;0.90;;;17.40;98.20;;;;;;4988896;28;20488;-85
2023/10/08 03:15:28;;;;;;;1.50;1.00;;;17.40;98.20;;;;;;4958054;28;20529;-83
2023/10/08 03:17:57;;;;;;;1.50;0.90;;;17.40;98.20;;;;;;4977576;28;20476;-85
2023/10/08 03:20:42;;;;;;;1.50;1.00;;;17.40;98.20;;;;;;4957681;28;20544;-85
2023/10/08 03:23:22;;;;;;;1.50;1.00;;;17.40;98.20;;;;;;4981369;28;20478;-84
2023/10/08 03:26:01;;;;;;;1.50;1.00;;;17.30;98.20;;;;;;4947639;28;20494;-83
2023/10/08 03:28:34;;;;;;;1.50;1.00;;;17.30;98.20;;;;;;4982344;28;20961;-84
2023/10/08 03:31:15;;;;;;;1.50;1.00;;;17.30;98.20;;;;;;4946638;28;21241;-83
2023/10/08 03:33:49;;;;;;;1.50;1.00;;;17.20;98.20;;;;;;4982145;28;20497;-84
2023/10/08 03:36:21;;;;;;;1.50;1.00;;;17.20;98.20;;;;;;4969238;28;20472;-84
2023/10/08 03:38:51;;;;;;;1.50;1.00;;;17.20;98.20;;;;;;4979853;28;20549;-84
2023/10/08 03:41:27;;;;;;;1.50;0.90;;;17.20;98.20;;;;;;4964760;28;20556;-85
2023/10/08 03:44:05;;;;;;;1.50;0.90;;;17.20;98.20;;;;;;4976173;28;21012;-85
2023/10/08 03:46:42;;;;;;;1.50;1.00;;;17.10;98.20;;;;;;4970069;28;20480;-85
2023/10/08 03:49:15;;;;;;;1.50;1.00;;;17.10;98.20;;;;;;4962429;28;20490;-84
2023/10/08 03:51:46;;;;;;;1.50;0.90;;;17.00;98.20;;;;;;4959483;28;20485;-83
2023/10/08 03:54:20;;;;;;;5.43;3.10;;;17.00;98.20;;;;;;4971198;28;20497;-83
2023/10/08 03:56:48;;;;;;;1.47;0.90;;;17.00;98.20;;;;;;4968211;28;20516;-83
2023/10/08 03:59:29;;;;;;;1.50;1.00;;;17.00;98.20;;;;;;4969275;28;20926;-83
2023/10/08 04:01:59;;;;;;;1.50;1.00;;;17.00;98.20;;;;;;4955952;28;20527;-83
2023/10/08 04:04:31;;;;;;;1.50;0.90;;;17.00;98.20;;;;;;4957225;28;20497;-83
2023/10/08 04:07:24;;;;;;;1.50;1.07;;;17.00;98.20;;;;;;4965455;28;20583;-84
2023/10/08 04:10:04;;;;;;;1.50;1.00;;;17.00;98.20;;;;;;4962115;28;20453;-84
2023/10/08 04:12:34;;;;;;;1.40;0.90;;;17.00;98.20;;;;;;4955731;28;20522;-83
2023/10/08 04:15:08;;;;;;;1.50;0.90;;;17.00;98.20;;;;;;4956269;28;20479;-83
2023/10/08 04:17:43;;;;;;;1.50;1.00;;;17.00;98.20;;;;;;4970384;28;20485;-83
2023/10/08 04:20:30;;;;;;;1.50;1.00;;;17.00;98.20;;;;;;4959044;28;20490;-83
2023/10/08 04:22:59;;;;;;;1.50;1.00;;;17.00;98.20;;;;;;4961191;28;20566;-83
2023/10/08 04:25:27;;;;;;;1.43;1.00;;;17.00;98.20;;;;;;4953519;28;20459;-83
2023/10/08 04:27:58;;;;;;;1.50;1.00;;;17.00;98.20;;;;;;4962143;28;21637;-83
2023/10/08 04:30:33;;;;;;;1.47;1.00;;;16.90;98.20;;;;;;4953445;28;20467;-82
2023/10/08 04:33:07;;;;;;;1.50;1.00;;;16.90;98.20;;;;;;4960421;28;20481;-83
2023/10/08 04:35:37;;;;;;;1.50;1.00;;;16.90;98.20;;;;;;4955944;28;20546;-83
2023/10/08 04:38:08;;;;;;;1.50;1.00;;;16.90;98.20;;;;;;4975099;28;20493;-83
2023/10/08 04:40:41;;;;;;;1.50;0.90;;;16.90;98.20;;;;;;4957656;28;20495;-82
2023/10/08 04:43:10;;;;;;;1.50;1.00;;;16.90;98.20;;;;;;4975543;28;20491;-83
2023/10/08 04:45:39;;;;;;;1.47;1.00;;;16.90;98.20;;;;;;4956919;28;20482;-84
2023/10/08 04:48:10;;;;;;;1.50;1.00;;;16.80;98.20;;;;;;4962979;28;20952;-83
2023/10/08 04:50:44;;;;;;;1.50;1.00;;;16.80;98.20;;;;;;4954026;28;20455;-84
2023/10/08 04:53:11;;;;;;;1.50;0.97;;;16.80;98.20;;;;;;4962848;28;20542;-84
2023/10/08 04:55:48;;;;;;;1.43;1.00;;;16.80;98.20;;;;;;4959019;28;20880;-83
2023/10/08 04:58:21;;;;;;;1.50;1.00;;;16.80;98.20;;;;;;4946068;28;20506;-83
2023/10/08 05:00:59;;;;;;;1.47;1.00;;;16.80;98.20;;;;;;4945137;28;20551;-83
2023/10/08 05:03:32;;;;;;;1.50;1.00;;;16.80;98.20;;;;;;4970492;28;21009;-83
2023/10/08 05:06:09;;;;;;;1.40;1.00;;;16.80;98.20;;;;;;4950231;28;20481;-84
2023/10/08 05:08:47;;;;;;;1.50;0.97;;;16.80;98.20;;;;;;4977676;28;20490;-85
2023/10/08 05:11:36;;;;;;;1.50;1.00;;;16.80;98.20;;;;;;4950941;28;20460;-82
2023/10/08 05:14:06;;;;;;;1.50;0.90;;;16.80;98.20;;;;;;4970446;28;20936;-81
2023/10/08 05:16:43;;;;;;;1.40;0.90;;;16.80;98.20;;;;;;4969411;28;20476;-81
2023/10/08 05:22:17;;;;;;;1.50;1.00;;;16.80;98.20;;;;;;4959496;28;20481;-82
2023/10/08 05:24:51;;;;;;;1.50;1.00;;;16.70;98.20;;;;;;4959444;28;20597;-83
2023/10/08 05:27:56;;;;;;;1.50;1.00;;;16.70;98.20;;;;;;4968217;28;20481;-81
2023/10/08 05:30:28;;;;;;;1.47;1.00;;;16.70;98.20;;;;;;4953823;28;21047;-82
2023/10/08 05:33:23;;;;;;;1.47;0.90;;;16.70;98.20;;;;;;4972691;28;20666;-82
2023/10/08 05:35:50;;;;;;;1.50;0.90;;;16.60;98.20;;;;;;4944617;28;20467;-81
2023/10/08 05:38:23;;;;;;;1.50;1.00;;;16.60;98.20;;;;;;4984748;28;20518;-82
2023/10/08 05:49:15;;;;;;;1.50;0.90;;;16.60;98.20;;;;;;4960559;28;20463;-79
2023/10/08 05:51:56;;;;;;;1.40;0.97;;;16.60;98.20;;;;;;4947781;28;20517;-80
2023/10/08 05:54:36;;;;;;;1.50;1.00;;;16.60;98.20;;;;;;4959513;28;20540;-79
2023/10/08 05:57:07;;;;;;;1.47;1.00;;;16.60;98.20;;;;;;4958332;28;20496;-80
2023/10/08 05:59:38;;;;;;;1.50;1.00;;;16.60;98.20;;;;;;4961006;28;20579;-80
2023/10/08 06:02:26;;;;;;;1.50;1.00;;;16.60;98.20;;;;;;4962217;28;20474;-80
2023/10/08 06:05:09;;;;;;;1.50;1.00;;;16.60;98.20;;;;;;4953081;28;20550;-80
2023/10/08 06:07:48;;;;;;;1.50;1.00;;;16.60;98.20;;;;;;4968894;28;20905;-80
2023/10/08 06:10:41;;;;;;;1.50;1.00;;;16.60;98.20;;;;;;4946932;28;20465;-80
2023/10/08 06:13:09;;;;;;;1.50;1.00;;;16.60;98.20;;;;;;4956632;28;20574;-80
2023/10/08 06:15:44;;;;;;;1.50;0.90;;;16.60;98.20;;;;;;4949499;28;20502;-80
2023/10/08 06:18:10;;;;;;;1.50;1.00;;;16.60;98.20;;;;;;4970608;28;20475;-80
2023/10/08 06:20:40;;;;;;;1.47;0.90;;;16.60;98.20;;;;;;4952253;28;20526;-80
2023/10/08 06:23:07;;;;;;;1.50;1.00;;;16.60;98.20;;;;;;4969219;28;20485;-80
2023/10/08 06:25:44;;;;;;;1.50;0.90;;;16.70;98.20;;;;;;4949999;28;20466;-80
2023/10/08 06:28:29;;;;;;;1.60;1.30;;;16.70;98.20;;;;;;4955360;28;20927;-80
2023/10/08 06:30:57;;;;;;;1.40;1.00;;;16.70;98.20;;;;;;4944280;28;20469;-79
2023/10/08 06:33:30;;;;;;;1.47;0.90;;;16.80;98.20;;;;;;4976767;28;20483;-79
2023/10/08 06:36:02;;;;;;;1.50;1.00;;;16.80;98.20;;;;;;4941864;28;20471;-80
2023/10/08 06:38:34;;;;;;;1.43;0.90;;;16.80;98.20;;;;;;4962209;28;20872;-79
2023/10/08 06:41:08;;;;;;;1.50;1.00;;;16.80;98.20;;;;;;4945037;28;21044;-79
2023/10/08 06:43:38;;;;;;;1.47;1.00;;;16.90;98.20;;;;;;4970750;28;20533;-79
2023/10/08 06:46:07;;;;;;;1.50;0.93;;;16.90;98.20;;;;;;4943663;28;20841;-80
2023/10/08 06:48:34;;;;;;;1.47;0.97;;;16.90;98.20;;;;;;4973857;28;20829;-79
2023/10/08 06:51:07;;;;;;;1.50;1.00;;;16.90;98.20;;;;;;4944463;28;20459;-79
2023/10/08 06:53:34;;;;;;;1.50;0.90;;;16.90;98.20;;;;;;4971482;28;20498;-79
2023/10/08 06:56:04;;;;;;;1.40;0.90;;;17.00;98.20;;;;;;4943182;28;20494;-79
2023/10/08 06:58:32;;;;;;;1.50;1.00;;;17.00;98.20;;;;;;4974249;28;20471;-79
2023/10/08 07:01:04;;;;;;;1.47;0.97;;;17.00;98.20;;;;;;4944686;28;20502;-80
2023/10/08 07:03:31;;;;;;;1.50;1.00;;;17.10;98.20;;;;;;4971356;28;20554;-80
2023/10/08 07:05:59;;;;;;;1.50;1.00;;;17.10;98.20;;;;;;4942980;28;20766;-80
2023/10/08 07:08:31;;;;;;;1.50;0.90;;;17.10;98.20;;;;;;4975204;28;20557;-80
2023/10/08 07:10:59;;;;;;;1.50;1.00;;;17.20;98.20;;;;;;4945288;28;20451;-79
2023/10/08 07:13:30;;;;;;;1.50;0.93;;;17.20;98.20;;;;;;4978459;28;21005;-80
2023/10/08 07:16:00;;;;;;;1.50;0.90;;;17.30;98.20;;;;;;4944066;28;20455;-80
2023/10/08 07:18:35;;;;;;;1.50;1.00;;;17.30;98.20;;;;;;4968298;28;20466;-81
2023/10/08 07:21:11;;;;;;;1.50;0.90;;;17.30;98.20;;;;;;4946824;28;20490;-80
2023/10/08 07:23:55;;;;;;;1.47;0.90;;;17.40;98.20;;;;;;4965237;28;20986;-80
2023/10/08 07:26:24;;;;;;;1.50;1.00;;;17.40;98.20;;;;;;4948342;28;20859;-80
2023/10/08 07:28:53;;;;;;;1.50;0.90;;;17.50;98.20;;;;;;4964796;28;21025;-81
2023/10/08 07:31:22;;;;;;;1.50;1.00;;;17.50;98.20;;;;;;4951057;28;20476;-80
2023/10/08 07:33:56;;;;;;;1.50;0.97;;;17.60;98.20;;;;;;4973053;28;20833;-80
2023/10/08 07:36:23;;;;;;;1.50;0.90;;;17.60;98.20;;;;;;4950881;28;20468;-81
2023/10/08 07:38:52;;;;;;;1.47;0.90;;;17.70;98.20;;;;;;4972834;28;20462;-80
2023/10/08 07:41:20;;;;;;;1.47;0.90;;;17.70;98.20;;;;;;4949574;28;20493;-83
2023/10/08 07:43:55;;;;;;;1.50;0.90;;;17.80;98.20;;;;;;4967177;28;20479;-82
2023/10/08 07:46:22;;;;;;;1.50;0.90;;;17.80;98.20;;;;;;4952650;28;20917;-81
2023/10/08 07:48:50;;;;;;;1.50;0.90;;;17.90;98.20;;;;;;4975133;28;20505;-81
2023/10/08 07:51:52;;;;;;;1.40;0.90;;;17.90;98.20;;;;;;4954781;28;20514;-81
2023/10/08 07:54:22;;;;;;;1.47;0.90;;;18.00;98.20;;;;;;4965170;28;20501;-81
2023/10/08 07:56:51;;;;;;;1.40;0.90;;;18.00;98.20;;;;;;4961020;28;21103;-81
2023/10/08 07:59:18;;;;;;;1.50;1.00;;;18.00;98.20;;;;;;4969409;28;20471;-81
2023/10/08 08:01:45;;;;;;;1.47;0.90;;;18.00;98.20;;;;;;4958564;28;20551;-81
2023/10/08 08:04:21;;;;;;;1.43;0.90;;;18.00;98.20;;;;;;4972375;28;20483;-81
2023/10/08 08:06:50;;;;;;;1.50;1.00;;;18.00;98.20;;;;;;4955978;28;20564;-82
2023/10/08 08:09:19;;;;;;;1.50;0.97;;;18.00;98.20;;;;;;4962375;28;20845;-83
2023/10/08 08:11:48;;;;;;;1.50;0.90;;;18.00;98.20;;;;;;4951807;28;20485;-83
2023/10/08 08:14:17;;;;;;;1.50;1.00;;;18.00;98.20;;;;;;4960478;28;20641;-83
2023/10/08 08:16:47;;;;;;;1.47;0.90;;;18.00;98.20;;;;;;4950757;28;20509;-81
2023/10/08 08:19:34;;;;;;;1.50;0.90;;;18.00;98.20;;;;;;4965407;28;20475;-81
2023/10/08 08:22:02;;;;;;;1.50;1.00;;;18.00;98.20;;;;;;4963176;28;20476;-81
2023/10/08 08:24:34;;;;;;;1.50;1.00;;;18.00;98.20;;;;;;4975501;28;20482;-82
2023/10/08 08:27:08;;;;;;;1.50;0.90;;;18.10;98.20;;;;;;4972601;28;20476;-84
2023/10/08 08:29:44;;;;;;;1.43;0.90;;;18.10;98.20;;;;;;4965580;28;20462;-83
2023/10/08 08:32:12;;;;;;;1.50;0.90;;;18.20;98.20;;;;;;4962117;28;20587;-83
2023/10/08 08:34:43;;;;;;;1.50;1.00;;;18.30;98.20;;;;;;4963191;28;20896;-82
2023/10/08 08:37:11;;;;;;;1.40;0.90;;;18.30;98.20;;;;;;4966763;28;20485;-82
2023/10/08 08:39:38;;;;;;;1.50;0.90;;;18.30;98.20;;;;;;4965926;28;20844;-85
2023/10/08 08:42:29;;;;;;;1.50;1.00;;;18.40;98.20;;;;;;4969899;28;20476;-81
2023/10/08 08:44:59;;;;;;;1.50;0.90;;;18.40;98.20;;;;;;4960775;28;20479;-85
2023/10/08 08:47:28;;;;;;;1.50;0.90;;;18.30;98.20;;;;;;4958191;28;20485;-83
2023/10/08 08:50:00;;;;;;;2.07;1.87;;;18.40;98.20;;;;;;4958828;28;20597;-84
2023/10/08 08:52:27;;;;;;;1.43;0.90;;;18.50;98.20;;;;;;4969739;28;20480;-84
2023/10/08 08:54:56;;;;;;;1.47;0.93;;;18.50;98.20;;;;;;4960073;28;20791;-84
2023/10/08 08:57:25;;;;;;;1.50;1.00;;;18.70;98.20;;;;;;4956243;28;20551;-83
2023/10/08 08:59:54;;;;;;;1.50;0.93;;;18.80;98.20;;;;;;4957173;28;20487;-82
2023/10/08 09:02:22;;;;;;;2.53;2.33;;;19.00;98.20;;;;;;4969797;28;20485;-82
2023/10/08 09:04:53;;;;;;;1.47;0.90;;;19.10;98.20;;;;;;4957918;28;20852;-82
2023/10/08 09:07:22;;;;;;;1.50;0.90;;;19.20;98.20;;;;;;4969217;28;20734;-82
2023/10/08 09:09:49;;;;;;;1.50;0.90;;;19.30;98.20;;;;;;4962877;28;20514;-83
2023/10/08 09:12:17;;;;;;;1.47;0.90;;;19.30;98.20;;;;;;4965823;28;21012;-81
2023/10/08 09:14:47;;;;;;;1.50;0.90;;;19.40;98.20;;;;;;4960299;28;21024;-80
2023/10/08 09:17:15;;;;;;;1.50;0.90;;;19.50;98.20;;;;;;4964836;28;20560;-83
2023/10/08 09:19:42;;;;;;;1.50;0.90;;;19.60;98.20;;;;;;4964753;28;20495;-82
2023/10/08 09:22:11;;;;;;;1.50;0.90;;;19.70;98.20;;;;;;4955539;28;20993;-82
2023/10/08 09:24:41;;;;;;;1.47;0.90;;;19.70;98.20;;;;;;4957221;28;21033;-79
2023/10/08 09:27:14;;;;;;;1.50;0.90;;;19.80;98.20;;;;;;4957749;28;20491;-79
2023/10/08 09:29:41;;;;;;;1.50;1.00;;;19.80;98.20;;;;;;4967920;28;20466;-82
2023/10/08 09:32:10;;;;;;;1.50;0.90;;;19.80;98.20;;;;;;4952898;28;20484;-80
2023/10/08 09:34:37;;;;;;;1.50;0.90;;;19.80;98.20;;;;;;4954498;28;20491;-82
2023/10/08 09:37:04;;;;;;;1.47;0.90;;;19.80;98.20;;;;;;4950712;28;20534;-82
2023/10/08 09:39:33;;;;;;;1.40;0.90;;;19.80;98.20;;;;;;4955396;28;20463;-81
2023/10/08 09:42:03;;;;;;;1.47;0.90;;;19.80;98.20;;;;;;4959651;28;20594;-82
2023/10/08 09:44:32;;;;;;;1.43;0.90;;;19.90;98.20;;;;;;4962633;28;20479;-81
2023/10/08 09:47:04;;;;;;;1.50;0.90;;;20.10;98.20;;;;;;4958078;28;20516;-81
2023/10/08 09:49:36;;;;;;;1.47;0.90;;;20.10;98.20;;;;;;4960374;28;20493;-82
2023/10/08 09:52:06;;;;;;;1.50;0.97;;;20.30;98.20;;;;;;4963782;28;21031;-81
2023/10/08 09:54:40;;;;;;;1.50;0.90;;;20.30;98.20;;;;;;4962749;28;20549;-80
2023/10/08 09:57:07;;;;;;;1.50;0.90;;;20.30;98.20;;;;;;4952966;28;20486;-81
2023/10/08 09:59:35;;;;;;;1.50;0.90;;;20.40;98.20;;;;;;4960611;28;20463;-82
2023/10/08 10:02:03;;;;;;;1.50;0.90;;;20.30;98.20;;;;;;4960218;28;20553;-82
2023/10/08 10:04:33;;;;;;;1.47;0.90;;;20.40;98.20;;;;;;4961518;28;20486;-80
2023/10/08 10:07:08;;;;;;;1.43;0.90;;;20.50;98.20;;;;;;4961006;28;20523;-82
2023/10/08 10:09:37;;;;;;;1.47;0.90;;;20.60;98.20;;;;;;4961076;28;20473;-82
2023/10/08 10:12:09;;;;;;;1.50;0.90;;;20.70;98.20;;;;;;4954916;28;20489;-81
2023/10/08 10:14:43;;;;;;;1.50;0.90;;;20.70;98.20;;;;;;4956597;28;20482;-80
2023/10/08 10:17:14;;;;;;;1.50;0.90;;;20.70;98.20;;;;;;4962053;28;20487;-81
2023/10/08 10:19:45;;;;;;;1.47;0.90;;;20.80;98.20;;;;;;4956954;28;20473;-81
2023/10/08 10:22:16;;;;;;;1.50;1.10;;;20.70;98.20;;;;;;4961822;28;20508;-81
2023/10/08 10:24:45;;;;;;;1.50;0.90;;;20.70;98.20;;;;;;4956563;28;20613;-79
2023/10/08 10:27:14;;;;;;;1.47;0.90;;;20.70;98.20;;;;;;4949368;28;21091;-79
2023/10/08 10:29:43;;;;;;;1.43;0.90;;;20.80;98.20;;;;;;4952127;28;20470;-81
2023/10/08 10:32:13;;;;;;;1.50;0.90;;;20.90;98.20;;;;;;4958831;28;21190;-83
2023/10/08 10:34:43;;;;;;;1.47;0.90;;;21.00;98.20;;;;;;4956649;28;20937;-81
2023/10/08 10:37:19;;;;;;;1.50;0.90;;;21.10;98.20;;;;;;4958907;28;20488;-80
2023/10/08 10:39:54;;;;;;;1.50;0.90;;;21.20;98.20;;;;;;4955670;28;20982;-80
2023/10/08 10:42:22;;;;;;;1.50;0.90;;;21.20;98.20;;;;;;4950818;28;21044;-80
2023/10/08 10:44:50;;;;;;;1.47;0.90;;;21.30;98.20;;;;;;4950544;28;21121;-79
2023/10/08 10:47:27;;;;;;;1.50;0.90;;;21.30;98.20;;;;;;4948781;28;20501;-79
2023/10/08 10:52:51;;;;;;;1.50;0.90;;;21.60;98.20;;;;;;4952039;28;20533;-81
2023/10/08 10:55:31;;;;;;;1.47;0.90;;;21.80;98.20;;;;;;4950690;28;20470;-81
2023/10/08 10:58:11;;;;;;;1.47;0.90;;;21.80;98.20;;;;;;4951748;28;20489;-81
2023/10/08 11:00:57;;;;;;;1.50;0.90;;;21.80;98.20;;;;;;4949017;28;20548;-82
2023/10/08 11:03:23;;;;;;;1.50;0.90;;;22.00;98.20;;;;;;4935444;28;21080;-82
2023/10/08 11:05:59;;;;;;;1.47;0.90;;;22.20;98.20;;;;;;4940395;28;20521;-82
2023/10/08 11:08:34;;;;;;;1.47;0.90;;;22.30;98.20;;;;;;4975676;28;20488;-82
2023/10/08 11:11:05;;;;;;;1.47;0.90;;;22.40;98.20;;;;;;4940166;28;20480;-80
2023/10/08 11:13:43;;;;;;;1.43;0.90;;;22.40;98.20;;;;;;4973757;28;20585;-79
2023/10/08 11:16:13;;;;;;;1.50;0.90;;;22.50;98.20;;;;;;4946345;28;20491;-80
2023/10/08 11:18:46;;;;;;;1.50;0.90;;;22.60;98.20;;;;;;4974749;28;20466;-82
2023/10/08 11:21:16;;;;;;;1.47;0.90;;;22.70;98.20;;;;;;4947963;28;20478;-80
2023/10/08 11:23:46;;;;;;;1.43;0.83;;;22.70;98.20;;;;;;4973277;28;20750;-82
2023/10/08 11:26:16;;;;;;;1.47;0.90;;;22.80;98.20;;;;;;4946763;28;20480;-82
2023/10/08 11:28:43;;;;;;;1.43;0.87;;;22.80;98.20;;;;;;4972466;28;20470;-81
2023/10/08 11:31:14;;;;;;;1.50;0.90;;;22.80;98.10;;;;;;4944467;28;20507;-81
2023/10/08 11:33:42;;;;;;;1.43;0.90;;;22.80;97.90;;;;;;4976453;28;20495;-81
2023/10/08 11:36:18;;;;;;;1.47;0.80;;;22.80;98.10;;;;;;4957326;28;20473;-81
2023/10/08 11:38:50;;;;;;;1.43;0.90;;;22.90;98.20;;;;;;4973349;28;20839;-81
2023/10/08 11:41:27;;;;;;;1.43;0.80;;;23.00;98.20;;;;;;4945657;28;21021;-81
2023/10/08 11:43:57;;;;;;;1.47;0.90;;;23.10;98.20;;;;;;4970341;28;20482;-79
2023/10/08 11:47:21;;;;;;;1.47;0.90;;;23.20;97.70;;;;;;5061874;22;20482;-86
2023/10/08 11:49:50;;;;;;;1.47;0.90;;;23.20;97.70;;;;;;4953115;28;21062;-84
2023/10/08 11:52:21;;;;;;;1.47;0.80;;;23.10;98.20;;;;;;4956058;28;20487;-85
2023/10/08 11:54:52;;;;;;;1.47;0.90;;;23.10;97.90;;;;;;4972665;28;21156;-84
2023/10/08 11:57:21;;;;;;;1.50;0.90;;;23.10;98.20;;;;;;4968328;28;20495;-84
2023/10/08 11:59:48;;;;;;;1.47;0.93;;;23.10;97.70;;;;;;4974685;28;20493;-84
2023/10/08 12:02:20;;;;;;;1.50;0.90;;;23.00;98.20;;;;;;4970746;28;20952;-84
2023/10/08 12:04:47;;;;;;;1.50;0.87;;;23.00;97.90;;;;;;4975900;28;20489;-84
2023/10/08 12:07:17;;;;;;;2.90;1.73;;;22.90;98.20;;;;;;4969515;28;20480;-85
2023/10/08 12:09:48;;;;;;;1.47;0.90;;;22.90;98.20;;;;;;4975264;28;21045;-84
2023/10/08 12:12:20;;;;;;;1.47;0.90;;;22.80;98.20;;;;;;4961928;28;20520;-85
2023/10/08 12:14:49;;;;;;;1.50;0.90;;;22.80;98.20;;;;;;4970145;28;20549;-85
2023/10/08 12:17:17;;;;;;;1.47;0.83;;;22.70;98.20;;;;;;4975268;28;20571;-85
2023/10/08 12:19:45;;;;;;;1.47;0.90;;;22.60;98.20;;;;;;4981686;28;20826;-85
2023/10/08 12:22:17;;;;;;;1.47;0.90;;;22.50;98.20;;;;;;4962670;28;20482;-85
2023/10/08 12:24:44;;;;;;;1.50;0.90;;;22.40;98.20;;;;;;4972059;28;20494;-85
2023/10/08 12:27:11;;;;;;;1.47;0.80;;;22.40;98.20;;;;;;4976208;28;20554;-85
2023/10/08 12:29:42;;;;;;;2.27;1.77;;;22.30;98.20;;;;;;4980574;28;20458;-85
2023/10/08 12:35:29;;;;;;;1.50;0.90;;;22.20;98.20;;;;;;4966699;28;20493;-84
2023/10/08 12:38:27;;;;;;;1.43;0.90;;;22.20;98.20;;;;;;4955735;28;20569;-84
2023/10/08 12:41:31;;;;;;;1.43;0.90;;;22.20;98.20;;;;;;4930038;28;20494;-85
2023/10/08 12:44:08;;;;;;;1.43;0.90;;;22.20;98.20;;;;;;4982427;28;20571;-86
2023/10/08 12:46:39;;;;;;;1.43;0.90;;;22.10;98.20;;;;;;4970116;28;20971;-85
2023/10/08 12:49:07;;;;;;;1.47;0.90;;;22.00;98.20;;;;;;4983518;28;20977;-85
2023/10/08 12:51:34;;;;;;;1.50;0.90;;;22.00;98.20;;;;;;4963540;28;20827;-84
2023/10/08 12:54:08;;;;;;;1.50;0.90;;;22.00;98.20;;;;;;4978741;28;21119;-85
2023/10/08 12:56:58;;;;;;;1.47;0.90;;;22.00;98.20;;;;;;4979719;28;20470;-84
2023/10/08 12:59:26;;;;;;;1.47;0.90;;;22.00;98.20;;;;;;4973074;28;20474;-85
2023/10/08 13:02:30;;;;;;;1.50;0.90;;;21.90;98.20;;;;;;4973835;28;20486;-86
2023/10/08 13:05:54;;;;;;;1.47;1.00;;;21.90;98.20;;;;;;5047592;22;20595;-86
2023/10/08 13:12:00;;;;;;;1.50;0.90;;;21.90;98.20;;;;;;4964813;28;20627;-85
2023/10/08 13:14:30;;;;;;;1.50;0.90;;;21.80;98.20;;;;;;4976941;23;20509;-84
2023/10/08 13:16:58;;;;;;;1.40;0.90;;;21.90;98.20;;;;;;4939655;28;20485;-84
2023/10/08 13:19:26;;;;;;;1.47;0.90;;;21.90;98.20;;;;;;4943632;28;20475;-84
2023/10/08 13:21:53;;;;;;;1.50;0.90;;;22.00;98.20;;;;;;4937576;28;20486;-84
2023/10/08 13:24:21;;;;;;;1.43;0.80;;;22.10;98.20;;;;;;4935925;28;21001;-84
2023/10/08 13:26:50;;;;;;;1.50;0.90;;;22.20;98.20;;;;;;4925405;28;21071;-85
2023/10/08 13:29:48;;;;;;;1.43;0.87;;;22.30;98.20;;;;;;4936185;28;20530;-84
2023/10/08 13:32:18;;;;;;;1.43;0.87;;;22.40;98.20;;;;;;4865409;29;20490;-85
2023/10/08 13:34:54;;;;;;;1.47;0.90;;;22.50;98.20;;;;;;5040407;22;20502;-83
2023/10/08 13:50:24;;;;;;;1.50;0.90;;;22.90;98.20;;;;;;4984297;28;20472;-84